Othello — LXOD — position and weather

sailwx.info

Track history (hours):
 
Tides and Currents Weather Stations Pressure Air Temp Water Temp Dewpoint Dewpoint Depression Visibility Wind Speed Wind Dir Waves Ship Positions

Othello

Last reported at 2016-Apr-29 13:14 UTC. Time now 2016-Apr-29 13:58 UTC.
Position N 51°53' E 004°18'.

Length 104 m; draft 6.7 m.

Type: Tanker. MMSI: 253279000.

Date/timePositionNaut miles runAvg speedWind from/ knotsBaromVisibWave heightAir tempDewpointWater temp
2016-Apr-29 13:14N 51°53' E 004°18'0 0.0
2016-Apr-29 12:20N 51°53' E 004°18'0 0.0
2016-Apr-29 11:23N 51°53' E 004°18'0 0.0
2016-Apr-29 10:05N 51°53' E 004°18'0 0.0
2016-Apr-29 09:32N 51°53' E 004°18'0 0.0
2016-Apr-29 08:32N 51°53' E 004°18'0 0.0
2016-Apr-29 07:17N 51°53' E 004°18'0 0.0
2016-Apr-29 06:32N 51°53' E 004°18'0 0.0
2016-Apr-29 05:32N 51°53' E 004°18'1 1.4
2016-Apr-29 04:33N 51°54' E 004°17'1211.8
2016-Apr-29 03:34N 51°60' E 004°01'1211.4
2016-Apr-29 02:33N 51°58' E 003°42'2110.3
2016-Apr-29 00:29N 51°45' E 003°15'1011.0
2016-Apr-28 23:34N 51°36' E 003°23'1211.8
2016-Apr-28 22:34N 51°27' E 003°34'1010.0
2016-Apr-28 21:33N 51°21' E 003°47'1110.9
2016-Apr-28 20:33N 51°22' E 004°05'8 7.9
2016-Apr-28 19:34N 51°21' E 004°17'1 0.6
2016-Apr-28 18:33N 51°21' E 004°18'6 6.0
2016-Apr-28 17:33N 51°15' E 004°21'0 0.0
2016-Apr-28 16:33N 51°15' E 004°21'0 0.0
2016-Apr-28 15:33N 51°15' E 004°21'0 0.0
2016-Apr-28 14:33N 51°15' E 004°21'0 0.0
2016-Apr-28 13:33N 51°15' E 004°21'0 0.0
2016-Apr-28 12:33N 51°15' E 004°21'0 0.0
2016-Apr-28 11:21N 51°15' E 004°21'0 0.0
2016-Apr-28 10:33N 51°15' E 004°21'0 0.0
2016-Apr-28 09:33N 51°15' E 004°21'0 0.0
2016-Apr-28 08:30N 51°15' E 004°21'0 0.0
2016-Apr-28 07:33N 51°15' E 004°21'0 0.0
2016-Apr-28 06:30N 51°15' E 004°21'0 0.0
2016-Apr-28 05:33N 51°15' E 004°21'0 0.0
2016-Apr-28 04:33N 51°15' E 004°21'0 0.0
2016-Apr-28 03:33N 51°15' E 004°21'0 0.0
2016-Apr-28 02:30N 51°15' E 004°21'0 0.0
2016-Apr-28 01:30N 51°15' E 004°21'0 0.0
2016-Apr-28 00:33N 51°15' E 004°21'0 0.0
2016-Apr-27 23:33N 51°15' E 004°21'0 0.0
2016-Apr-27 22:33N 51°15' E 004°21'0 0.0
2016-Apr-27 21:33N 51°15' E 004°21'0 0.0
2016-Apr-27 20:30N 51°15' E 004°21'0 0.0
2016-Apr-27 19:33N 51°15' E 004°21'0 0.0
2016-Apr-27 18:33N 51°15' E 004°21'0 0.0
2016-Apr-27 17:33N 51°15' E 004°21'0 0.0
2016-Apr-27 16:30N 51°15' E 004°21'0 0.0
2016-Apr-27 15:33N 51°15' E 004°21'0 0.0
2016-Apr-27 14:24N 51°15' E 004°21'0 0.0
2016-Apr-27 13:33N 51°15' E 004°21'0 0.0
2016-Apr-27 12:30N 51°15' E 004°21'0 0.0
2016-Apr-27 11:27N 51°15' E 004°21'0 0.0
2016-Apr-27 10:18N 51°15' E 004°21'0 0.0
2016-Apr-27 09:33N 51°15' E 004°21'0 0.0
2016-Apr-27 08:30N 51°15' E 004°21'0 0.0
2016-Apr-27 07:33N 51°15' E 004°21'0 0.0
2016-Apr-27 06:33N 51°15' E 004°21'0 0.0
2016-Apr-27 05:33N 51°15' E 004°21'0 0.0
2016-Apr-27 04:30N 51°15' E 004°21'0 0.5
2016-Apr-27 03:34N 51°15' E 004°21'1 1.4
2016-Apr-27 02:30N 51°17' E 004°20'0 0.0
2016-Apr-27 01:30N 51°17' E 004°20'0 0.0
2016-Apr-27 00:18N 51°17' E 004°20'0 0.0
2016-Apr-26 23:33N 51°17' E 004°20'0 0.0
2016-Apr-26 22:27N 51°17' E 004°20'0 0.0
2016-Apr-26 21:30N 51°17' E 004°20'0 0.0
2016-Apr-26 20:30N 51°17' E 004°20'0 0.0
2016-Apr-26 19:30N 51°17' E 004°20'0 0.0
2016-Apr-26 18:33N 51°17' E 004°20'0 0.0
2016-Apr-26 17:30N 51°17' E 004°20'0 0.0
2016-Apr-26 16:30N 51°17' E 004°20'0 0.0
2016-Apr-26 15:30N 51°17' E 004°20'0 0.0
2016-Apr-26 14:30N 51°17' E 004°20'0 0.0
2016-Apr-26 13:27N 51°17' E 004°20'0 0.0
2016-Apr-26 12:30N 51°17' E 004°20'0 0.0
2016-Apr-26 11:30N 51°17' E 004°20'0 0.0
2016-Apr-26 10:30N 51°17' E 004°20'0 0.0
2016-Apr-26 09:30N 51°17' E 004°20'0 0.0
2016-Apr-26 08:33N 51°17' E 004°20'0 0.0
2016-Apr-26 07:33N 51°17' E 004°20'0 0.0
2016-Apr-26 06:33N 51°17' E 004°20'0 0.0
2016-Apr-26 05:30N 51°17' E 004°20'0 0.0
2016-Apr-26 04:27N 51°17' E 004°20'0 0.0
2016-Apr-26 03:30N 51°17' E 004°20'0 0.0
2016-Apr-26 02:33N 51°17' E 004°20'0 0.0
2016-Apr-26 01:33N 51°17' E 004°20'0 0.0
2016-Apr-26 00:33N 51°17' E 004°20'0 0.0
2016-Apr-25 23:30N 51°17' E 004°20'0 0.0
2016-Apr-25 22:33N 51°17' E 004°20'0 0.0
2016-Apr-25 21:27N 51°17' E 004°20'0 0.0
2016-Apr-25 20:33N 51°17' E 004°20'0 0.0
2016-Apr-25 19:33N 51°17' E 004°20'4 3.9
2016-Apr-25 18:33N 51°20' E 004°18'1 0.8
2016-Apr-25 17:33N 51°21' E 004°17'3 3.3
2016-Apr-25 16:34N 51°23' E 004°13'6 6.4
2016-Apr-25 15:34N 51°23' E 004°03'9 9.1
2016-Apr-25 14:33N 51°21' E 003°48'1413.5
2016-Apr-25 13:33N 51°28' E 003°30'9 8.9
2016-Apr-25 12:33N 51°36' E 003°23'58 7.3
2016-Apr-25 04:33N 52°23' E 002°26'1211.7
2016-Apr-25 03:33N 52°33' E 002°17'1211.3
2016-Apr-25 02:31N 52°43' E 002°07'1111.6
2016-Apr-25 01:33N 52°49' E 001°51'1110.9
2016-Apr-25 00:33N 52°55' E 001°36'1111.3
2016-Apr-24 23:33N 53°05' E 001°26'1411.6
2016-Apr-24 22:22N 53°17' E 001°14'1112.5
2016-Apr-24 21:31N 53°26' E 001°05'4214.1
2016-Apr-24 18:33N 54°02' E 000°29'1514.6
2016-Apr-24 17:33N 54°14' E 000°17'1514.7
2016-Apr-24 16:33N 54°27' E 000°04'1414.1
2016-Apr-24 15:33N 54°39' W 000°10'2013.7
2016-Apr-24 14:05N 54°47' W 000°42'711.1
2016-Apr-24 13:26N 54°44' W 000°53'1011.7
2016-Apr-24 12:33N 54°39' W 001°09'2 0.8
2016-Apr-24 10:25N 54°37' W 001°09'0 0.0
2016-Apr-24 07:25N 54°37' W 001°09'0 0.0
2016-Apr-24 06:31N 54°37' W 001°09'0 0.0
2016-Apr-24 04:28N 54°37' W 001°09'0 0.0
2016-Apr-24 03:28N 54°37' W 001°09'0 0.0
2016-Apr-24 02:31N 54°37' W 001°09'0 0.0
2016-Apr-24 01:31N 54°37' W 001°09'0 0.0
2016-Apr-23 23:22N 54°37' W 001°09'0 0.0
2016-Apr-23 22:22N 54°37' W 001°09'0 0.0
2016-Apr-23 16:16N 54°37' W 001°09'2 3.3
2016-Apr-23 15:33N 54°39' W 001°08'8 6.9
2016-Apr-23 14:20N 54°43' W 000°55'0 0.0
2016-Apr-23 13:20N 54°43' W 000°55'0 0.0
2016-Apr-23 12:32N 54°43' W 000°55'0 0.0
2016-Apr-23 11:20N 54°43' W 000°55'0 0.0
2016-Apr-23 09:26N 54°43' W 000°55'0 0.0
2016-Apr-23 07:14N 54°43' W 000°55'0 0.0
2016-Apr-23 06:29N 54°43' W 000°55'0 0.0
2016-Apr-23 02:17N 54°43' W 000°55'0 0.0
2016-Apr-22 19:11N 54°43' W 000°55'3 0.1
2016-Apr-21 19:33N 54°43' W 000°59'2211.2
2016-Apr-21 17:33N 54°32' W 000°26'1211.6
2016-Apr-21 16:33N 54°23' W 000°13'1211.7
2016-Apr-21 15:33N 54°14' W 000°01'1111.5
2016-Apr-21 14:33N 54°04' E 000°10'1312.2
2016-Apr-21 13:32N 53°53' E 000°20'1312.9
2016-Apr-21 12:33N 53°42' E 000°30'1313.4
2016-Apr-21 11:34N 53°32' E 000°45'1414.3
2016-Apr-21 10:34N 53°25' E 001°06'1414.0
2016-Apr-21 09:31N 53°13' E 001°18'1313.0
2016-Apr-21 08:33N 53°02' E 001°29'1110.7
2016-Apr-21 07:33N 52°54' E 001°41'1110.5
2016-Apr-21 06:33N 52°47' E 001°55'1111.4
2016-Apr-21 05:33N 52°41' E 002°10'1313.0
2016-Apr-21 04:34N 52°34' E 002°28'1413.6
2016-Apr-21 03:34N 52°27' E 002°47'1313.4
2016-Apr-21 02:34N 52°20' E 003°05'1313.0
2016-Apr-21 01:34N 52°13' E 003°24'1312.7
2016-Apr-21 00:33N 52°06' E 003°41'1010.4
2016-Apr-20 23:34N 52°02' E 003°57'1413.9
2016-Apr-20 22:33N 51°55' E 004°15'5 0.9
2016-Apr-20 17:33N 51°53' E 004°23'0 0.0
2016-Apr-20 16:30N 51°53' E 004°23'0 0.0
2016-Apr-20 15:27N 51°53' E 004°23'0 0.0
2016-Apr-20 12:18N 51°53' E 004°23'0 0.0
2016-Apr-20 11:30N 51°53' E 004°23'0 0.0
2016-Apr-20 10:09N 51°53' E 004°23'0 0.0
2016-Apr-20 07:18N 51°53' E 004°23'0 0.0
2016-Apr-20 06:21N 51°53' E 004°23'0 0.0
2016-Apr-20 04:27N 51°53' E 004°23'0 0.0
2016-Apr-20 03:16N 51°53' E 004°23'1 0.7
2016-Apr-20 02:33N 51°54' E 004°22'5 4.9
2016-Apr-20 01:33N 51°50' E 004°27'8 8.0
2016-Apr-20 00:33N 51°45' E 004°38'  
Track history (hours):
 
Tides and Currents Weather Stations Pressure Air Temp Water Temp Dewpoint Dewpoint Depression Visibility Wind Speed Wind Dir Waves Ship Positions

Othello

Last reported at 2016-Apr-29 13:14 UTC. Time now 2016-Apr-29 13:58 UTC.
Position N 51°53' E 004°18'.

Length 104 m; draft 6.7 m.

Type: Tanker. MMSI: 253279000.

Date/timePositionNaut miles runAvg speedWind from/ knotsBaromVisibWave heightAir tempDewpointWater temp
2016-Apr-29 13:14N 51°53' E 004°18'0 0.0
2016-Apr-29 12:20N 51°53' E 004°18'0 0.0
2016-Apr-29 11:23N 51°53' E 004°18'0 0.0
2016-Apr-29 10:05N 51°53' E 004°18'0 0.0
2016-Apr-29 09:32N 51°53' E 004°18'0 0.0
2016-Apr-29 08:32N 51°53' E 004°18'0 0.0
2016-Apr-29 07:17N 51°53' E 004°18'0 0.0
2016-Apr-29 06:32N 51°53' E 004°18'0 0.0
2016-Apr-29 05:32N 51°53' E 004°18'1 1.4
2016-Apr-29 04:33N 51°54' E 004°17'1211.8
2016-Apr-29 03:34N 51°60' E 004°01'1211.4
2016-Apr-29 02:33N 51°58' E 003°42'2110.3
2016-Apr-29 00:29N 51°45' E 003°15'1011.0
2016-Apr-28 23:34N 51°36' E 003°23'1211.8
2016-Apr-28 22:34N 51°27' E 003°34'1010.0
2016-Apr-28 21:33N 51°21' E 003°47'1110.9
2016-Apr-28 20:33N 51°22' E 004°05'8 7.9
2016-Apr-28 19:34N 51°21' E 004°17'1 0.6
2016-Apr-28 18:33N 51°21' E 004°18'6 6.0
2016-Apr-28 17:33N 51°15' E 004°21'0 0.0
2016-Apr-28 16:33N 51°15' E 004°21'0 0.0
2016-Apr-28 15:33N 51°15' E 004°21'0 0.0
2016-Apr-28 14:33N 51°15' E 004°21'0 0.0
2016-Apr-28 13:33N 51°15' E 004°21'0 0.0
2016-Apr-28 12:33N 51°15' E 004°21'0 0.0
2016-Apr-28 11:21N 51°15' E 004°21'0 0.0
2016-Apr-28 10:33N 51°15' E 004°21'0 0.0
2016-Apr-28 09:33N 51°15' E 004°21'0 0.0
2016-Apr-28 08:30N 51°15' E 004°21'0 0.0
2016-Apr-28 07:33N 51°15' E 004°21'0 0.0
2016-Apr-28 06:30N 51°15' E 004°21'0 0.0
2016-Apr-28 05:33N 51°15' E 004°21'0 0.0
2016-Apr-28 04:33N 51°15' E 004°21'0 0.0
2016-Apr-28 03:33N 51°15' E 004°21'0 0.0
2016-Apr-28 02:30N 51°15' E 004°21'0 0.0
2016-Apr-28 01:30N 51°15' E 004°21'0 0.0
2016-Apr-28 00:33N 51°15' E 004°21'0 0.0
2016-Apr-27 23:33N 51°15' E 004°21'0 0.0
2016-Apr-27 22:33N 51°15' E 004°21'0 0.0
2016-Apr-27 21:33N 51°15' E 004°21'0 0.0
2016-Apr-27 20:30N 51°15' E 004°21'0 0.0
2016-Apr-27 19:33N 51°15' E 004°21'0 0.0
2016-Apr-27 18:33N 51°15' E 004°21'0 0.0
2016-Apr-27 17:33N 51°15' E 004°21'0 0.0
2016-Apr-27 16:30N 51°15' E 004°21'0 0.0
2016-Apr-27 15:33N 51°15' E 004°21'0 0.0
2016-Apr-27 14:24N 51°15' E 004°21'0 0.0
2016-Apr-27 13:33N 51°15' E 004°21'0 0.0
2016-Apr-27 12:30N 51°15' E 004°21'0 0.0
2016-Apr-27 11:27N 51°15' E 004°21'0 0.0
2016-Apr-27 10:18N 51°15' E 004°21'0 0.0
2016-Apr-27 09:33N 51°15' E 004°21'0 0.0
2016-Apr-27 08:30N 51°15' E 004°21'0 0.0
2016-Apr-27 07:33N 51°15' E 004°21'0 0.0
2016-Apr-27 06:33N 51°15' E 004°21'0 0.0
2016-Apr-27 05:33N 51°15' E 004°21'0 0.0
2016-Apr-27 04:30N 51°15' E 004°21'0 0.5
2016-Apr-27 03:34N 51°15' E 004°21'1 1.4
2016-Apr-27 02:30N 51°17' E 004°20'0 0.0
2016-Apr-27 01:30N 51°17' E 004°20'0 0.0
2016-Apr-27 00:18N 51°17' E 004°20'0 0.0
2016-Apr-26 23:33N 51°17' E 004°20'0 0.0
2016-Apr-26 22:27N 51°17' E 004°20'0 0.0
2016-Apr-26 21:30N 51°17' E 004°20'0 0.0
2016-Apr-26 20:30N 51°17' E 004°20'0 0.0
2016-Apr-26 19:30N 51°17' E 004°20'0 0.0
2016-Apr-26 18:33N 51°17' E 004°20'0 0.0
2016-Apr-26 17:30N 51°17' E 004°20'0 0.0
2016-Apr-26 16:30N 51°17' E 004°20'0 0.0
2016-Apr-26 15:30N 51°17' E 004°20'0 0.0
2016-Apr-26 14:30N 51°17' E 004°20'0 0.0
2016-Apr-26 13:27N 51°17' E 004°20'0 0.0
2016-Apr-26 12:30N 51°17' E 004°20'0 0.0
2016-Apr-26 11:30N 51°17' E 004°20'0 0.0
2016-Apr-26 10:30N 51°17' E 004°20'0 0.0
2016-Apr-26 09:30N 51°17' E 004°20'0 0.0
2016-Apr-26 08:33N 51°17' E 004°20'0 0.0
2016-Apr-26 07:33N 51°17' E 004°20'0 0.0
2016-Apr-26 06:33N 51°17' E 004°20'0 0.0
2016-Apr-26 05:30N 51°17' E 004°20'0 0.0
2016-Apr-26 04:27N 51°17' E 004°20'0 0.0
2016-Apr-26 03:30N 51°17' E 004°20'0 0.0
2016-Apr-26 02:33N 51°17' E 004°20'0 0.0
2016-Apr-26 01:33N 51°17' E 004°20'0 0.0
2016-Apr-26 00:33N 51°17' E 004°20'0 0.0
2016-Apr-25 23:30N 51°17' E 004°20'0 0.0
2016-Apr-25 22:33N 51°17' E 004°20'0 0.0
2016-Apr-25 21:27N 51°17' E 004°20'0 0.0
2016-Apr-25 20:33N 51°17' E 004°20'0 0.0
2016-Apr-25 19:33N 51°17' E 004°20'4 3.9
2016-Apr-25 18:33N 51°20' E 004°18'1 0.8
2016-Apr-25 17:33N 51°21' E 004°17'3 3.3
2016-Apr-25 16:34N 51°23' E 004°13'6 6.4
2016-Apr-25 15:34N 51°23' E 004°03'9 9.1
2016-Apr-25 14:33N 51°21' E 003°48'1413.5
2016-Apr-25 13:33N 51°28' E 003°30'9 8.9
2016-Apr-25 12:33N 51°36' E 003°23'58 7.3
2016-Apr-25 04:33N 52°23' E 002°26'1211.7
2016-Apr-25 03:33N 52°33' E 002°17'1211.3
2016-Apr-25 02:31N 52°43' E 002°07'1111.6
2016-Apr-25 01:33N 52°49' E 001°51'1110.9
2016-Apr-25 00:33N 52°55' E 001°36'1111.3
2016-Apr-24 23:33N 53°05' E 001°26'1411.6
2016-Apr-24 22:22N 53°17' E 001°14'1112.5
2016-Apr-24 21:31N 53°26' E 001°05'4214.1
2016-Apr-24 18:33N 54°02' E 000°29'1514.6
2016-Apr-24 17:33N 54°14' E 000°17'1514.7
2016-Apr-24 16:33N 54°27' E 000°04'1414.1
2016-Apr-24 15:33N 54°39' W 000°10'2013.7
2016-Apr-24 14:05N 54°47' W 000°42'711.1
2016-Apr-24 13:26N 54°44' W 000°53'1011.7
2016-Apr-24 12:33N 54°39' W 001°09'2 0.8
2016-Apr-24 10:25N 54°37' W 001°09'0 0.0
2016-Apr-24 07:25N 54°37' W 001°09'0 0.0
2016-Apr-24 06:31N 54°37' W 001°09'0 0.0
2016-Apr-24 04:28N 54°37' W 001°09'0 0.0
2016-Apr-24 03:28N 54°37' W 001°09'0 0.0
2016-Apr-24 02:31N 54°37' W 001°09'0 0.0
2016-Apr-24 01:31N 54°37' W 001°09'0 0.0
2016-Apr-23 23:22N 54°37' W 001°09'0 0.0
2016-Apr-23 22:22N 54°37' W 001°09'0 0.0
2016-Apr-23 16:16N 54°37' W 001°09'2 3.3
2016-Apr-23 15:33N 54°39' W 001°08'8 6.9
2016-Apr-23 14:20N 54°43' W 000°55'0 0.0
2016-Apr-23 13:20N 54°43' W 000°55'0 0.0
2016-Apr-23 12:32N 54°43' W 000°55'0 0.0
2016-Apr-23 11:20N 54°43' W 000°55'0 0.0
2016-Apr-23 09:26N 54°43' W 000°55'0 0.0
2016-Apr-23 07:14N 54°43' W 000°55'0 0.0
2016-Apr-23 06:29N 54°43' W 000°55'0 0.0
2016-Apr-23 02:17N 54°43' W 000°55'0 0.0
2016-Apr-22 19:11N 54°43' W 000°55'3 0.1
2016-Apr-21 19:33N 54°43' W 000°59'2211.2
2016-Apr-21 17:33N 54°32' W 000°26'1211.6
2016-Apr-21 16:33N 54°23' W 000°13'1211.7
2016-Apr-21 15:33N 54°14' W 000°01'1111.5
2016-Apr-21 14:33N 54°04' E 000°10'1312.2
2016-Apr-21 13:32N 53°53' E 000°20'1312.9
2016-Apr-21 12:33N 53°42' E 000°30'1313.4
2016-Apr-21 11:34N 53°32' E 000°45'1414.3
2016-Apr-21 10:34N 53°25' E 001°06'1414.0
2016-Apr-21 09:31N 53°13' E 001°18'1313.0
2016-Apr-21 08:33N 53°02' E 001°29'1110.7
2016-Apr-21 07:33N 52°54' E 001°41'1110.5
2016-Apr-21 06:33N 52°47' E 001°55'1111.4
2016-Apr-21 05:33N 52°41' E 002°10'1313.0
2016-Apr-21 04:34N 52°34' E 002°28'1413.6
2016-Apr-21 03:34N 52°27' E 002°47'1313.4
2016-Apr-21 02:34N 52°20' E 003°05'1313.0
2016-Apr-21 01:34N 52°13' E 003°24'1312.7
2016-Apr-21 00:33N 52°06' E 003°41'1010.4
2016-Apr-20 23:34N 52°02' E 003°57'1413.9
2016-Apr-20 22:33N 51°55' E 004°15'5 0.9
2016-Apr-20 17:33N 51°53' E 004°23'0 0.0
2016-Apr-20 16:30N 51°53' E 004°23'0 0.0
2016-Apr-20 15:27N 51°53' E 004°23'0 0.0
2016-Apr-20 12:18N 51°53' E 004°23'0 0.0
2016-Apr-20 11:30N 51°53' E 004°23'0 0.0
2016-Apr-20 10:09N 51°53' E 004°23'0 0.0
2016-Apr-20 07:18N 51°53' E 004°23'0 0.0
2016-Apr-20 06:21N 51°53' E 004°23'0 0.0
2016-Apr-20 04:27N 51°53' E 004°23'0 0.0
2016-Apr-20 03:16N 51°53' E 004°23'1 0.7
2016-Apr-20 02:33N 51°54' E 004°22'5 4.9
2016-Apr-20 01:33N 51°50' E 004°27'8 8.0
2016-Apr-20 00:33N 51°45' E 004°38'  

Dump ship's entire track history